createdAt,value
2018-08-13T00:02:22.622Z,61.10
2018-08-13T00:04:50.987Z,60.90
2018-08-13T00:07:19.334Z,60.80
2018-08-13T00:09:47.711Z,60.90
2018-08-13T00:12:16.084Z,60.80
2018-08-13T00:14:44.458Z,60.80
2018-08-13T00:17:12.788Z,61.00
2018-08-13T00:19:41.157Z,60.90
2018-08-13T00:22:09.512Z,60.90
2018-08-13T00:24:37.910Z,61.20
2018-08-13T00:27:06.252Z,61.10
2018-08-13T00:29:34.612Z,61.30
2018-08-13T00:32:02.980Z,61.10
2018-08-13T00:34:31.335Z,61.40
2018-08-13T00:36:59.670Z,61.50
2018-08-13T00:39:28.103Z,61.90
2018-08-13T00:41:56.436Z,61.70
2018-08-13T00:44:24.832Z,61.80
2018-08-13T00:46:53.213Z,61.70
2018-08-13T00:49:21.575Z,61.60
2018-08-13T00:51:49.956Z,61.90
2018-08-13T00:54:18.348Z,61.20
2018-08-13T00:56:46.708Z,61.30
2018-08-13T00:59:15.095Z,61.30
2018-08-13T01:01:43.497Z,61.80
2018-08-13T01:04:11.834Z,61.00
2018-08-13T01:06:40.212Z,61.00
2018-08-13T01:09:09.655Z,61.10
2018-08-13T01:11:38.028Z,61.00
2018-08-13T01:14:06.727Z,61.00
2018-08-13T01:16:35.087Z,61.20
2018-08-13T01:19:03.452Z,61.20
2018-08-13T01:21:31.832Z,61.30
2018-08-13T01:24:00.192Z,61.20
2018-08-13T01:26:28.595Z,61.40
2018-08-13T01:28:56.980Z,61.50
2018-08-13T01:31:25.402Z,61.30
2018-08-13T01:33:53.745Z,61.50
2018-08-13T01:36:22.120Z,61.60
2018-08-13T01:38:50.471Z,61.60
2018-08-13T01:41:19.584Z,61.60
2018-08-13T01:43:48.279Z,61.70
2018-08-13T01:46:16.656Z,61.70
2018-08-13T01:48:45.011Z,61.70
2018-08-13T01:51:13.397Z,61.60
2018-08-13T01:53:41.755Z,61.70
2018-08-13T01:56:10.117Z,61.70
2018-08-13T01:58:38.481Z,61.80
2018-08-13T02:01:06.863Z,62.10
2018-08-13T02:03:35.214Z,62.00
2018-08-13T02:06:03.624Z,62.10
2018-08-13T02:08:31.951Z,62.20
2018-08-13T02:11:00.337Z,62.30
2018-08-13T02:13:28.691Z,62.40
2018-08-13T02:15:57.076Z,62.50
2018-08-13T02:18:25.408Z,62.50
2018-08-13T02:20:53.784Z,62.60
2018-08-13T02:23:22.130Z,62.50
2018-08-13T02:25:50.511Z,62.50
2018-08-13T02:28:18.871Z,62.30
2018-08-13T02:30:47.232Z,62.10
2018-08-13T02:33:15.599Z,62.00
2018-08-13T02:35:44.005Z,61.90
2018-08-13T02:38:15.475Z,62.60
2018-08-13T02:40:43.951Z,61.80
2018-08-13T02:43:12.452Z,61.80
2018-08-13T02:45:40.792Z,61.80
2018-08-13T02:48:09.238Z,61.80
2018-08-13T02:50:37.599Z,61.90
2018-08-13T02:53:06.387Z,61.90
2018-08-13T02:55:34.741Z,61.80
2018-08-13T02:58:03.129Z,62.00
2018-08-13T03:00:31.536Z,62.10
2018-08-13T03:02:59.951Z,62.00
2018-08-13T03:05:28.299Z,61.90
2018-08-13T03:07:56.672Z,62.10
2018-08-13T03:10:25.030Z,62.10
2018-08-13T03:12:53.391Z,62.20
2018-08-13T03:15:21.737Z,62.10
2018-08-13T03:17:50.143Z,62.20
2018-08-13T03:20:18.493Z,62.30
2018-08-13T03:22:46.856Z,62.50
2018-08-13T03:25:15.211Z,62.70
2018-08-13T03:27:43.608Z,62.60
2018-08-13T03:30:12.717Z,62.40
2018-08-13T03:32:41.343Z,62.50
2018-08-13T03:35:09.935Z,62.30
2018-08-13T03:37:38.351Z,62.30
2018-08-13T03:40:08.860Z,62.40
2018-08-13T03:42:37.240Z,62.60
2018-08-13T03:45:06.849Z,62.60
2018-08-13T03:47:35.202Z,62.60
2018-08-13T03:50:03.592Z,62.60
2018-08-13T03:52:31.982Z,62.70
2018-08-13T03:55:00.328Z,62.60
2018-08-13T03:57:28.728Z,62.70
2018-08-13T03:59:57.100Z,62.60
2018-08-13T04:02:25.455Z,62.50
2018-08-13T04:04:53.812Z,62.30
2018-08-13T04:07:22.212Z,62.10
2018-08-13T04:09:50.535Z,61.90
2018-08-13T04:12:18.897Z,61.60
2018-08-13T04:14:47.249Z,61.60
2018-08-13T04:17:15.615Z,61.90
2018-08-13T04:19:43.988Z,61.90
2018-08-13T04:22:12.364Z,62.20
2018-08-13T04:24:40.788Z,62.20
2018-08-13T04:27:09.149Z,62.30
2018-08-13T04:29:38.609Z,62.30
2018-08-13T04:32:07.236Z,62.30
2018-08-13T04:34:35.636Z,62.30
2018-08-13T04:37:03.980Z,62.30
2018-08-13T04:39:32.379Z,62.10
2018-08-13T04:42:00.714Z,62.10
2018-08-13T04:44:29.102Z,62.30
2018-08-13T04:46:57.423Z,62.90
2018-08-13T04:49:25.808Z,64.40
2018-08-13T04:51:54.160Z,63.80
2018-08-13T04:54:22.536Z,63.90
2018-08-13T04:56:50.900Z,64.00
2018-08-13T04:59:19.649Z,64.00
2018-08-13T05:01:48.008Z,64.10
2018-08-13T05:04:16.364Z,64.10
2018-08-13T05:06:44.692Z,64.00
2018-08-13T05:09:13.080Z,63.80
2018-08-13T05:11:41.467Z,63.50
2018-08-13T05:14:09.902Z,63.40
2018-08-13T05:16:38.274Z,64.00
2018-08-13T05:19:06.646Z,62.70
2018-08-13T05:21:35.037Z,62.60
2018-08-13T05:24:03.447Z,62.60
2018-08-13T05:26:31.783Z,62.70
2018-08-13T05:29:00.196Z,63.00
2018-08-13T05:31:28.576Z,62.80
2018-08-13T05:33:56.927Z,63.10
2018-08-13T05:36:25.255Z,63.30
2018-08-13T05:38:53.632Z,62.90
2018-08-13T05:41:21.977Z,63.10
2018-08-13T05:43:50.369Z,62.90
2018-08-13T05:46:18.760Z,62.30
2018-08-13T05:48:47.155Z,61.00
2018-08-13T05:51:15.531Z,60.20
2018-08-13T05:53:44.084Z,59.90
2018-08-13T05:56:12.444Z,59.60
2018-08-13T05:58:40.820Z,58.80
2018-08-13T06:01:09.160Z,58.60
2018-08-13T06:03:37.535Z,58.00
2018-08-13T06:06:05.915Z,58.20
2018-08-13T06:08:34.281Z,57.60
2018-08-13T06:11:02.619Z,57.20
2018-08-13T06:13:31.077Z,57.10
2018-08-13T06:15:59.420Z,56.50
2018-08-13T06:18:27.807Z,56.60
2018-08-13T06:20:56.147Z,56.40
2018-08-13T06:23:24.517Z,56.50
2018-08-13T06:25:52.939Z,56.20
2018-08-13T06:28:21.289Z,55.70
2018-08-13T06:30:49.692Z,55.60
2018-08-13T06:33:18.076Z,55.30
2018-08-13T06:35:46.443Z,55.40
2018-08-13T06:38:14.772Z,54.10
2018-08-13T06:40:43.160Z,54.20
2018-08-13T06:43:11.488Z,53.90
2018-08-13T06:45:39.860Z,53.70
2018-08-13T06:48:08.223Z,54.30
2018-08-13T06:50:36.593Z,53.80
2018-08-13T06:53:04.967Z,53.40
2018-08-13T06:55:33.348Z,53.30
2018-08-13T06:58:01.724Z,53.10
2018-08-13T07:00:30.112Z,52.90
2018-08-13T07:02:58.473Z,52.60
2018-08-13T07:05:26.847Z,52.30
2018-08-13T07:07:55.196Z,51.50
2018-08-13T07:10:23.567Z,51.80
2018-08-13T07:12:51.966Z,51.10
2018-08-13T07:15:20.352Z,50.10
2018-08-13T07:17:48.730Z,49.80
2018-08-13T07:20:17.891Z,49.50
2018-08-13T07:22:46.239Z,48.50
2018-08-13T07:25:14.644Z,48.10
2018-08-13T07:27:43.102Z,47.50
2018-08-13T07:30:12.915Z,47.30
2018-08-13T07:32:41.649Z,46.90
2018-08-13T07:35:10.092Z,46.90
2018-08-13T07:37:38.441Z,46.70
2018-08-13T07:40:10.646Z,46.40
2018-08-13T07:42:39.365Z,46.50
2018-08-13T07:45:08.267Z,46.30
2018-08-13T07:47:36.610Z,46.40
2018-08-13T07:50:06.187Z,45.60
2018-08-13T07:52:34.565Z,45.60
2018-08-13T07:55:02.944Z,45.30
2018-08-13T07:57:31.275Z,45.10
2018-08-13T07:59:59.708Z,45.00
2018-08-13T08:02:28.143Z,45.00
2018-08-13T08:04:56.559Z,44.90
2018-08-13T08:07:25.930Z,44.80
2018-08-13T08:09:54.435Z,44.30
2018-08-13T08:12:22.791Z,44.30
2018-08-13T08:14:51.157Z,43.80
2018-08-13T08:17:19.517Z,44.00
2018-08-13T08:19:47.877Z,43.80
2018-08-13T08:22:16.282Z,43.80
2018-08-13T08:24:44.671Z,43.80
2018-08-13T08:27:13.125Z,43.60
2018-08-13T08:29:41.520Z,43.70
2018-08-13T08:32:09.913Z,43.80
2018-08-13T08:34:38.270Z,43.80
2018-08-13T08:37:06.692Z,44.00
2018-08-13T08:39:35.076Z,44.00
2018-08-13T08:42:03.497Z,44.10
2018-08-13T08:44:31.857Z,44.30
2018-08-13T08:47:00.230Z,44.10
2018-08-13T08:49:28.588Z,44.60
2018-08-13T08:51:56.936Z,44.90
2018-08-13T08:54:25.288Z,45.90
2018-08-13T08:56:53.677Z,46.30
2018-08-13T08:59:22.040Z,47.30
2018-08-13T09:01:50.404Z,47.90
2018-08-13T09:04:18.795Z,48.30
2018-08-13T09:06:47.171Z,49.20
2018-08-13T09:09:15.542Z,49.80
2018-08-13T09:11:43.911Z,50.80
2018-08-13T09:14:12.307Z,50.80
2018-08-13T09:16:44.207Z,51.20
2018-08-13T09:19:23.683Z,51.30
2018-08-13T09:21:52.807Z,51.10
2018-08-13T09:24:32.543Z,51.40
2018-08-13T09:27:12.264Z,51.50
2018-08-13T09:29:51.906Z,51.60
2018-08-13T09:32:33.549Z,52.00
2018-08-13T09:35:20.499Z,52.20
2018-08-13T09:37:48.870Z,52.50
2018-08-13T09:40:17.233Z,52.80
2018-08-13T09:42:45.643Z,53.10
2018-08-13T09:45:13.984Z,53.30
2018-08-13T09:47:42.476Z,53.40
2018-08-13T09:50:13.976Z,53.40
2018-08-13T09:52:43.109Z,53.70
2018-08-13T09:55:11.889Z,53.50
2018-08-13T09:57:40.269Z,53.60
2018-08-13T10:00:14.548Z,53.80
2018-08-13T10:02:43.194Z,54.00
2018-08-13T10:05:11.603Z,54.10
2018-08-13T10:07:40.132Z,54.10
2018-08-13T10:10:09.423Z,54.30
2018-08-13T10:12:37.848Z,54.40
2018-08-13T10:15:06.688Z,54.80
2018-08-13T10:17:35.187Z,55.00
2018-08-13T10:20:04.229Z,55.20
2018-08-13T10:22:32.656Z,55.40
2018-08-13T10:25:01.149Z,55.40
2018-08-13T10:27:29.572Z,56.30
2018-08-13T10:29:57.961Z,55.80
2018-08-13T10:32:26.384Z,55.80
2018-08-13T10:34:54.760Z,55.80
2018-08-13T10:37:23.236Z,55.70
2018-08-13T10:39:51.576Z,56.30
2018-08-13T10:42:20.007Z,55.60
2018-08-13T10:44:48.402Z,55.50
2018-08-13T10:47:16.780Z,55.60
2018-08-13T10:49:45.157Z,55.60
2018-08-13T10:52:13.538Z,55.80
2018-08-13T10:54:41.967Z,55.90
2018-08-13T10:57:10.344Z,55.80
2018-08-13T10:59:38.777Z,55.90
2018-08-13T11:02:07.141Z,55.80
2018-08-13T11:04:35.556Z,55.60
2018-08-13T11:07:03.936Z,56.10
2018-08-13T11:09:32.371Z,55.20
2018-08-13T11:12:00.729Z,55.20
2018-08-13T11:14:29.096Z,55.10
2018-08-13T11:16:57.430Z,55.20
2018-08-13T11:19:25.791Z,55.30
2018-08-13T11:21:54.170Z,55.60
2018-08-13T11:24:22.567Z,55.80
2018-08-13T11:26:50.911Z,55.80
2018-08-13T11:29:19.280Z,55.80
2018-08-13T11:31:47.719Z,55.90
2018-08-13T11:34:16.099Z,55.90
2018-08-13T11:36:46.628Z,55.90
2018-08-13T11:39:17.352Z,56.30
2018-08-13T11:41:46.080Z,56.60
2018-08-13T11:44:14.765Z,56.60
2018-08-13T11:46:43.127Z,56.50
2018-08-13T11:49:11.521Z,56.60
2018-08-13T11:51:39.992Z,56.50
2018-08-13T11:54:08.384Z,56.50
2018-08-13T11:56:36.728Z,56.30
2018-08-13T11:59:05.129Z,56.40
2018-08-13T12:01:33.485Z,56.40
2018-08-13T12:04:01.925Z,56.60
2018-08-13T12:06:30.277Z,56.70
2018-08-13T12:08:58.648Z,56.60
2018-08-13T12:11:27.020Z,56.70
2018-08-13T12:13:55.382Z,56.40
2018-08-13T12:16:23.727Z,56.10
2018-08-13T12:18:52.082Z,55.90
2018-08-13T12:21:20.436Z,55.30
2018-08-13T12:23:48.829Z,54.80
2018-08-13T12:26:17.183Z,54.80
2018-08-13T12:28:45.583Z,54.30
2018-08-13T12:31:13.952Z,53.80
2018-08-13T12:33:42.317Z,53.30
2018-08-13T12:36:10.667Z,52.80
2018-08-13T12:38:39.069Z,52.00
2018-08-13T12:41:07.515Z,51.10
2018-08-13T12:43:35.871Z,50.40
2018-08-13T12:46:04.241Z,49.40
2018-08-13T12:48:32.629Z,48.90
2018-08-13T12:51:01.052Z,48.80
2018-08-13T12:53:29.408Z,48.50
2018-08-13T12:55:57.820Z,48.20
2018-08-13T12:58:26.153Z,48.10
2018-08-13T13:01:00.488Z,48.50
2018-08-13T13:03:29.228Z,48.50
2018-08-13T13:05:57.608Z,48.80
2018-08-13T13:08:25.958Z,49.10
2018-08-13T13:10:54.352Z,49.90
2018-08-13T13:13:22.708Z,49.50
2018-08-13T13:15:51.108Z,49.60
2018-08-13T13:18:19.496Z,49.70
2018-08-13T13:20:47.893Z,49.90
2018-08-13T13:23:16.267Z,49.90
2018-08-13T13:25:44.659Z,49.80
2018-08-13T13:28:13.015Z,49.80
2018-08-13T13:30:41.399Z,49.80
2018-08-13T13:33:09.769Z,49.80
2018-08-13T13:35:38.154Z,50.00
2018-08-13T13:38:06.519Z,50.10
2018-08-13T13:40:34.910Z,50.40
2018-08-13T13:43:03.288Z,50.70
2018-08-13T13:45:31.657Z,51.00
2018-08-13T13:48:00.013Z,51.20
2018-08-13T13:50:28.403Z,51.50
2018-08-13T13:52:56.782Z,51.70
2018-08-13T13:55:25.212Z,51.80
2018-08-13T13:57:53.585Z,52.40
2018-08-13T14:00:22.304Z,51.80
2018-08-13T14:02:51.671Z,51.90
2018-08-13T14:05:20.355Z,51.90
2018-08-13T14:07:48.700Z,52.20
2018-08-13T14:10:18.701Z,52.50
2018-08-13T14:12:47.113Z,52.70
2018-08-13T14:15:17.099Z,53.20
2018-08-13T14:17:45.491Z,53.80
2018-08-13T14:20:13.939Z,54.20
2018-08-13T14:22:42.298Z,54.50
2018-08-13T14:25:12.437Z,54.40
2018-08-13T14:27:41.000Z,54.30
2018-08-13T14:30:12.135Z,55.00
2018-08-13T14:32:40.521Z,54.40
2018-08-13T14:35:08.916Z,54.50
2018-08-13T14:37:37.285Z,55.40
2018-08-13T14:40:07.256Z,56.00
2018-08-13T14:42:35.592Z,56.70
2018-08-13T14:45:04.876Z,56.60
2018-08-13T14:47:33.255Z,56.20
2018-08-13T14:50:01.661Z,55.70
2018-08-13T14:52:30.093Z,54.90
2018-08-13T14:54:58.446Z,53.70
2018-08-13T14:57:27.380Z,52.80
2018-08-13T14:59:55.827Z,52.70
2018-08-13T15:02:24.241Z,53.40
2018-08-13T15:04:52.948Z,54.40
2018-08-13T15:07:21.383Z,54.90
2018-08-13T15:09:49.748Z,54.90
2018-08-13T15:12:18.160Z,54.60
2018-08-13T15:14:46.541Z,54.50
2018-08-13T15:17:14.931Z,54.60
2018-08-13T15:19:43.344Z,54.70
2018-08-13T15:22:11.724Z,55.10
2018-08-13T15:24:40.904Z,55.60
2018-08-13T15:27:09.299Z,55.90
2018-08-13T15:29:37.632Z,56.10
2018-08-13T15:32:06.053Z,56.50
2018-08-13T15:34:34.412Z,56.90
2018-08-13T15:37:02.893Z,57.10
2018-08-13T15:39:31.239Z,57.40
2018-08-13T15:41:59.631Z,57.70
2018-08-13T15:44:27.987Z,57.80
2018-08-13T15:46:56.384Z,58.10
2018-08-13T15:49:24.756Z,58.50
2018-08-13T15:51:53.118Z,58.60
2018-08-13T15:54:21.498Z,58.80
2018-08-13T15:56:49.856Z,58.80
2018-08-13T15:59:18.231Z,58.90
2018-08-13T16:01:46.677Z,58.90
2018-08-13T16:04:14.995Z,59.50
2018-08-13T16:06:43.364Z,58.80
2018-08-13T16:09:11.696Z,58.60
2018-08-13T16:11:40.065Z,58.90
2018-08-13T16:14:08.912Z,58.60
2018-08-13T16:16:37.284Z,58.80
2018-08-13T16:19:05.647Z,59.10
2018-08-13T16:21:34.278Z,59.50
2018-08-13T16:24:02.644Z,59.70
2018-08-13T16:26:31.033Z,60.00
2018-08-13T16:28:59.368Z,59.60
2018-08-13T16:31:27.788Z,59.30
2018-08-13T16:33:56.145Z,59.40
2018-08-13T16:36:24.493Z,59.30
2018-08-13T16:38:52.853Z,58.30
2018-08-13T16:41:21.229Z,57.40
2018-08-13T16:43:49.628Z,56.60
2018-08-13T16:46:17.988Z,56.00
2018-08-13T16:48:46.368Z,55.40
2018-08-13T16:51:14.725Z,55.10
2018-08-13T16:53:43.120Z,55.20
2018-08-13T16:56:11.541Z,55.80
2018-08-13T16:58:39.875Z,56.40
2018-08-13T17:01:08.250Z,56.80
2018-08-13T17:03:36.639Z,57.10
2018-08-13T17:06:05.021Z,57.70
2018-08-13T17:08:33.415Z,58.40
2018-08-13T17:11:01.781Z,58.80
2018-08-13T17:13:30.169Z,59.10
2018-08-13T17:15:58.540Z,59.50
2018-08-13T17:18:26.924Z,59.70
2018-08-13T17:20:55.319Z,59.90
2018-08-13T17:23:23.760Z,60.10
2018-08-13T17:25:52.140Z,60.30
2018-08-13T17:28:20.593Z,60.50
2018-08-13T17:30:48.912Z,60.70
2018-08-13T17:33:17.296Z,61.00
2018-08-13T17:35:45.681Z,61.20
2018-08-13T17:38:14.074Z,61.60
2018-08-13T17:40:42.443Z,61.90
2018-08-13T17:43:11.601Z,62.30
2018-08-13T17:45:39.828Z,62.60
2018-08-13T17:48:09.324Z,62.80
2018-08-13T17:50:37.695Z,63.00
2018-08-13T17:53:07.435Z,63.10
2018-08-13T17:55:35.827Z,63.10
2018-08-13T17:58:04.244Z,63.10
2018-08-13T18:00:32.610Z,63.20
2018-08-13T18:03:01.024Z,63.40
2018-08-13T18:05:29.409Z,63.50
2018-08-13T18:07:58.740Z,63.60
2018-08-13T18:10:29.857Z,63.70
2018-08-13T18:12:59.395Z,63.70
2018-08-13T18:15:27.831Z,63.60
2018-08-13T18:17:56.207Z,63.50
2018-08-13T18:20:24.576Z,63.70
2018-08-13T18:22:53.000Z,63.80
2018-08-13T18:25:21.401Z,64.40
2018-08-13T18:27:50.772Z,63.80
2018-08-13T18:30:21.288Z,63.80
2018-08-13T18:32:49.823Z,63.90
2018-08-13T18:35:18.257Z,64.10
2018-08-13T18:37:46.675Z,64.30
2018-08-13T18:40:25.382Z,64.60
2018-08-13T18:42:53.799Z,64.80
2018-08-13T18:45:22.202Z,65.00
2018-08-13T18:47:51.164Z,65.00
2018-08-13T18:50:20.691Z,65.90
2018-08-13T18:52:49.082Z,65.60
2018-08-13T18:55:20.703Z,66.00
2018-08-13T18:57:49.415Z,66.30
2018-08-13T19:00:21.024Z,66.60
2018-08-13T19:02:49.472Z,66.80
2018-08-13T19:05:18.465Z,67.10
2018-08-13T19:07:47.431Z,67.50
2018-08-13T19:10:16.780Z,67.70
2018-08-13T19:12:45.132Z,67.80
2018-08-13T19:15:18.560Z,67.90
2018-08-13T19:17:46.955Z,68.20
2018-08-13T19:20:15.733Z,68.30
2018-08-13T19:22:44.577Z,68.70
2018-08-13T19:25:15.452Z,69.00
2018-08-13T19:27:44.141Z,69.50
2018-08-13T19:30:14.364Z,70.00
2018-08-13T19:32:42.887Z,70.50
2018-08-13T19:35:11.535Z,71.00
2018-08-13T19:37:40.495Z,71.20
2018-08-13T19:40:11.157Z,71.60
2018-08-13T19:42:39.535Z,72.00
2018-08-13T19:45:09.364Z,72.10
2018-08-13T19:47:37.800Z,72.60
2018-08-13T19:50:07.709Z,72.90
2018-08-13T19:52:36.046Z,73.20
2018-08-13T19:55:04.538Z,73.30
2018-08-13T19:57:32.921Z,73.30
2018-08-13T20:00:01.311Z,73.00
2018-08-13T20:02:29.676Z,73.70
2018-08-13T20:04:58.101Z,73.80
2018-08-13T20:07:26.459Z,73.80
2018-08-13T20:09:54.831Z,75.00
2018-08-13T20:12:23.185Z,74.30
2018-08-13T20:14:51.570Z,74.60
2018-08-13T20:17:20.664Z,74.70
2018-08-13T20:19:49.060Z,74.70
2018-08-13T20:22:17.418Z,74.60
2018-08-13T20:24:45.860Z,74.60
2018-08-13T20:27:14.207Z,74.70
2018-08-13T20:29:42.612Z,74.60
2018-08-13T20:32:11.325Z,74.40
2018-08-13T20:34:39.712Z,74.30
2018-08-13T20:37:08.154Z,74.30
2018-08-13T20:39:36.476Z,74.30
2018-08-13T20:42:04.896Z,74.40
2018-08-13T20:44:33.269Z,74.50
2018-08-13T20:47:01.680Z,74.60
2018-08-13T20:49:30.049Z,74.60
2018-08-13T20:51:58.471Z,74.70
2018-08-13T20:54:26.836Z,74.90
2018-08-13T20:56:55.289Z,75.10
2018-08-13T20:59:23.676Z,75.30
2018-08-13T21:01:52.076Z,75.50
2018-08-13T21:04:20.423Z,75.60
2018-08-13T21:06:48.809Z,75.90
2018-08-13T21:09:17.205Z,76.10
2018-08-13T21:11:45.610Z,76.30
2018-08-13T21:14:14.010Z,76.60
2018-08-13T21:16:42.391Z,76.90
2018-08-13T21:19:10.758Z,77.20
2018-08-13T21:21:39.169Z,77.30
2018-08-13T21:24:07.592Z,77.60
2018-08-13T21:26:35.983Z,77.80
2018-08-13T21:29:04.371Z,78.10
2018-08-13T21:31:32.794Z,78.20
2018-08-13T21:34:01.137Z,78.30
2018-08-13T21:36:29.550Z,78.40
2018-08-13T21:38:57.913Z,78.60
2018-08-13T21:41:26.290Z,78.70
2018-08-13T21:43:55.436Z,78.70
2018-08-13T21:46:23.835Z,78.80
2018-08-13T21:48:52.691Z,79.00
2018-08-13T21:51:21.124Z,79.60
2018-08-13T21:53:49.481Z,78.90
2018-08-13T21:56:17.831Z,79.00
2018-08-13T21:58:46.213Z,78.90
2018-08-13T22:01:21.428Z,79.00
2018-08-13T22:03:50.584Z,79.30
2018-08-13T22:06:20.833Z,79.10
2018-08-13T22:08:52.100Z,79.20
2018-08-13T22:11:23.589Z,79.10
2018-08-13T22:13:51.984Z,79.10
2018-08-13T22:16:20.499Z,79.00
2018-08-13T22:18:48.866Z,79.00
2018-08-13T22:21:17.265Z,79.00
2018-08-13T22:23:57.001Z,79.00
2018-08-13T22:26:25.364Z,79.10
2018-08-13T22:28:54.164Z,79.30
2018-08-13T22:31:25.560Z,79.40
2018-08-13T22:36:33.770Z,79.40
2018-08-13T22:39:02.139Z,79.40
2018-08-13T22:41:30.511Z,79.70
2018-08-13T22:43:58.861Z,79.60
2018-08-13T22:46:27.239Z,79.60
2018-08-13T22:48:55.577Z,79.60
2018-08-13T22:51:23.955Z,80.20
2018-08-13T22:53:52.325Z,79.60
2018-08-13T22:56:20.716Z,79.60
2018-08-13T22:58:49.100Z,79.50
2018-08-13T23:01:17.488Z,79.70
2018-08-13T23:03:45.884Z,79.80
2018-08-13T23:06:14.268Z,80.00
2018-08-13T23:08:42.692Z,80.00
2018-08-13T23:11:11.063Z,80.20
2018-08-13T23:13:39.465Z,80.50
2018-08-13T23:16:07.847Z,80.70
2018-08-13T23:18:36.244Z,80.80
2018-08-13T23:21:04.624Z,81.00
2018-08-13T23:23:32.999Z,81.10
2018-08-13T23:26:01.375Z,81.30
2018-08-13T23:28:29.780Z,81.50
2018-08-13T23:30:58.207Z,81.60
2018-08-13T23:33:26.600Z,81.60
2018-08-13T23:35:54.979Z,81.70
2018-08-13T23:38:23.365Z,81.70
2018-08-13T23:40:51.721Z,81.90
2018-08-13T23:43:20.121Z,81.90
2018-08-13T23:45:48.493Z,81.90
2018-08-13T23:48:16.883Z,82.20
2018-08-13T23:50:45.237Z,82.20
2018-08-13T23:53:13.643Z,82.10
2018-08-13T23:55:42.390Z,82.20
2018-08-13T23:58:13.055Z,82.30
